sensor_id;sensor_type;location;lat;lon;timestamp;P1;durP1;ratioP1;P2;durP2;ratioP2
78365;SDS011;67641;59.864;30.464;2023-07-24T00:04:48;8.85;;;2.20;;
78365;SDS011;67641;59.864;30.464;2023-07-24T00:07:15;8.90;;;2.30;;
78365;SDS011;67641;59.864;30.464;2023-07-24T00:09:41;7.18;;;2.70;;
78365;SDS011;67641;59.864;30.464;2023-07-24T00:12:08;11.07;;;2.42;;
78365;SDS011;67641;59.864;30.464;2023-07-24T00:14:35;7.00;;;2.33;;
78365;SDS011;67641;59.864;30.464;2023-07-24T00:17:02;7.40;;;2.20;;
78365;SDS011;67641;59.864;30.464;2023-07-24T00:19:29;7.38;;;2.05;;
78365;SDS011;67641;59.864;30.464;2023-07-24T00:21:56;8.55;;;2.05;;
78365;SDS011;67641;59.864;30.464;2023-07-24T00:26:54;12.23;;;2.47;;
78365;SDS011;67641;59.864;30.464;2023-07-24T00:29:21;9.80;;;2.58;;
78365;SDS011;67641;59.864;30.464;2023-07-24T00:31:49;7.40;;;2.00;;
78365;SDS011;67641;59.864;30.464;2023-07-24T00:34:16;11.02;;;2.50;;
78365;SDS011;67641;59.864;30.464;2023-07-24T00:36:43;6.50;;;2.30;;
78365;SDS011;67641;59.864;30.464;2023-07-24T00:39:09;6.97;;;2.30;;
78365;SDS011;67641;59.864;30.464;2023-07-24T00:41:37;7.57;;;2.22;;
78365;SDS011;67641;59.864;30.464;2023-07-24T00:44:03;7.90;;;2.40;;
78365;SDS011;67641;59.864;30.464;2023-07-24T00:49:03;5.97;;;2.00;;
78365;SDS011;67641;59.864;30.464;2023-07-24T00:51:31;6.07;;;2.17;;
78365;SDS011;67641;59.864;30.464;2023-07-24T00:54:00;8.27;;;2.20;;
78365;SDS011;67641;59.864;30.464;2023-07-24T00:56:28;7.38;;;2.05;;
78365;SDS011;67641;59.864;30.464;2023-07-24T00:58:56;8.90;;;2.22;;
78365;SDS011;67641;59.864;30.464;2023-07-24T01:01:24;8.63;;;2.05;;
78365;SDS011;67641;59.864;30.464;2023-07-24T01:03:51;11.35;;;2.33;;
78365;SDS011;67641;59.864;30.464;2023-07-24T01:06:18;7.05;;;2.22;;
78365;SDS011;67641;59.864;30.464;2023-07-24T01:10:52;11.70;;;2.30;;
78365;SDS011;67641;59.864;30.464;2023-07-24T01:13:22;8.80;;;2.20;;
78365;SDS011;67641;59.864;30.464;2023-07-24T01:15:56;8.88;;;2.53;;
78365;SDS011;67641;59.864;30.464;2023-07-24T01:18:27;12.60;;;2.67;;
78365;SDS011;67641;59.864;30.464;2023-07-24T01:20:56;11.55;;;3.05;;
78365;SDS011;67641;59.864;30.464;2023-07-24T01:26:10;8.68;;;2.58;;
78365;SDS011;67641;59.864;30.464;2023-07-24T01:28:37;7.90;;;2.63;;
78365;SDS011;67641;59.864;30.464;2023-07-24T01:32:57;8.63;;;2.72;;
78365;SDS011;67641;59.864;30.464;2023-07-24T01:35:24;11.25;;;2.50;;
78365;SDS011;67641;59.864;30.464;2023-07-24T01:37:53;8.77;;;2.70;;
78365;SDS011;67641;59.864;30.464;2023-07-24T01:40:22;11.75;;;2.78;;
78365;SDS011;67641;59.864;30.464;2023-07-24T01:42:50;8.68;;;2.45;;
78365;SDS011;67641;59.864;30.464;2023-07-24T01:45:16;8.48;;;3.00;;
78365;SDS011;67641;59.864;30.464;2023-07-24T01:47:43;5.95;;;2.47;;
78365;SDS011;67641;59.864;30.464;2023-07-24T01:50:10;10.15;;;2.50;;
78365;SDS011;67641;59.864;30.464;2023-07-24T01:54:32;6.15;;;2.30;;
78365;SDS011;67641;59.864;30.464;2023-07-24T01:56:59;7.90;;;2.22;;
78365;SDS011;67641;59.864;30.464;2023-07-24T01:59:26;13.95;;;3.00;;
78365;SDS011;67641;59.864;30.464;2023-07-24T02:01:52;8.10;;;2.70;;
78365;SDS011;67641;59.864;30.464;2023-07-24T02:04:19;12.77;;;2.53;;
78365;SDS011;67641;59.864;30.464;2023-07-24T02:09:15;7.75;;;2.20;;
78365;SDS011;67641;59.864;30.464;2023-07-24T02:14:22;9.50;;;2.67;;
78365;SDS011;67641;59.864;30.464;2023-07-24T02:16:48;10.40;;;2.47;;
78365;SDS011;67641;59.864;30.464;2023-07-24T02:19:15;12.10;;;2.80;;
78365;SDS011;67641;59.864;30.464;2023-07-24T02:21:42;10.73;;;2.70;;
78365;SDS011;67641;59.864;30.464;2023-07-24T02:24:09;12.57;;;2.55;;
78365;SDS011;67641;59.864;30.464;2023-07-24T02:26:39;7.88;;;2.65;;
78365;SDS011;67641;59.864;30.464;2023-07-24T02:29:10;5.90;;;2.15;;
78365;SDS011;67641;59.864;30.464;2023-07-24T02:33:42;12.05;;;3.00;;
78365;SDS011;67641;59.864;30.464;2023-07-24T02:36:08;11.27;;;2.53;;
78365;SDS011;67641;59.864;30.464;2023-07-24T02:38:35;5.55;;;2.65;;
78365;SDS011;67641;59.864;30.464;2023-07-24T02:41:03;7.47;;;2.80;;
78365;SDS011;67641;59.864;30.464;2023-07-24T02:43:29;7.47;;;2.88;;
78365;SDS011;67641;59.864;30.464;2023-07-24T02:45:59;10.73;;;3.20;;
78365;SDS011;67641;59.864;30.464;2023-07-24T02:48:28;9.95;;;2.63;;
78365;SDS011;67641;59.864;30.464;2023-07-24T02:50:55;8.25;;;2.63;;
78365;SDS011;67641;59.864;30.464;2023-07-24T02:55:53;9.48;;;2.55;;
78365;SDS011;67641;59.864;30.464;2023-07-24T02:58:20;5.85;;;2.63;;
78365;SDS011;67641;59.864;30.464;2023-07-24T03:00:47;9.05;;;2.50;;
78365;SDS011;67641;59.864;30.464;2023-07-24T03:03:14;8.40;;;2.40;;
78365;SDS011;67641;59.864;30.464;2023-07-24T03:05:41;9.18;;;2.30;;
78365;SDS011;67641;59.864;30.464;2023-07-24T03:08:07;13.68;;;2.83;;
78365;SDS011;67641;59.864;30.464;2023-07-24T03:10:34;13.55;;;3.00;;
78365;SDS011;67641;59.864;30.464;2023-07-24T03:13:01;8.95;;;2.58;;
78365;SDS011;67641;59.864;30.464;2023-07-24T03:18:00;7.15;;;2.42;;
78365;SDS011;67641;59.864;30.464;2023-07-24T03:20:27;11.02;;;2.50;;
78365;SDS011;67641;59.864;30.464;2023-07-24T03:22:54;6.95;;;2.55;;
78365;SDS011;67641;59.864;30.464;2023-07-24T03:25:21;10.45;;;2.38;;
78365;SDS011;67641;59.864;30.464;2023-07-24T03:27:50;7.15;;;2.45;;
78365;SDS011;67641;59.864;30.464;2023-07-24T03:30:16;16.70;;;2.75;;
78365;SDS011;67641;59.864;30.464;2023-07-24T03:32:43;10.10;;;2.42;;
78365;SDS011;67641;59.864;30.464;2023-07-24T03:35:10;10.05;;;2.50;;
78365;SDS011;67641;59.864;30.464;2023-07-24T03:37:36;9.10;;;2.55;;
78365;SDS011;67641;59.864;30.464;2023-07-24T03:40:38;10.45;;;2.53;;
78365;SDS011;67641;59.864;30.464;2023-07-24T03:43:05;11.32;;;2.30;;
78365;SDS011;67641;59.864;30.464;2023-07-24T03:45:31;10.98;;;2.88;;
78365;SDS011;67641;59.864;30.464;2023-07-24T03:47:58;7.47;;;1.95;;
78365;SDS011;67641;59.864;30.464;2023-07-24T03:50:25;8.70;;;2.35;;
78365;SDS011;67641;59.864;30.464;2023-07-24T03:52:52;6.93;;;2.13;;
78365;SDS011;67641;59.864;30.464;2023-07-24T03:55:18;9.15;;;2.45;;
78365;SDS011;67641;59.864;30.464;2023-07-24T03:57:45;10.45;;;2.42;;
78365;SDS011;67641;59.864;30.464;2023-07-24T04:00:12;9.20;;;2.60;;
78365;SDS011;67641;59.864;30.464;2023-07-24T04:02:57;6.75;;;2.60;;
78365;SDS011;67641;59.864;30.464;2023-07-24T04:05:24;8.15;;;2.85;;
78365;SDS011;67641;59.864;30.464;2023-07-24T04:07:52;10.45;;;3.33;;
78365;SDS011;67641;59.864;30.464;2023-07-24T04:10:18;7.82;;;2.63;;
78365;SDS011;67641;59.864;30.464;2023-07-24T04:12:45;9.50;;;2.92;;
78365;SDS011;67641;59.864;30.464;2023-07-24T04:15:12;6.15;;;2.47;;
78365;SDS011;67641;59.864;30.464;2023-07-24T04:17:38;7.93;;;2.70;;
78365;SDS011;67641;59.864;30.464;2023-07-24T04:25:19;7.90;;;2.42;;
78365;SDS011;67641;59.864;30.464;2023-07-24T04:27:46;8.63;;;2.90;;
78365;SDS011;67641;59.864;30.464;2023-07-24T04:30:13;7.95;;;3.00;;
78365;SDS011;67641;59.864;30.464;2023-07-24T04:32:39;11.45;;;2.90;;
78365;SDS011;67641;59.864;30.464;2023-07-24T04:35:06;10.05;;;2.80;;
78365;SDS011;67641;59.864;30.464;2023-07-24T04:37:33;6.55;;;2.45;;
78365;SDS011;67641;59.864;30.464;2023-07-24T04:40:00;7.82;;;2.38;;
78365;SDS011;67641;59.864;30.464;2023-07-24T04:42:27;8.68;;;2.75;;
78365;SDS011;67641;59.864;30.464;2023-07-24T04:47:26;10.77;;;2.22;;
78365;SDS011;67641;59.864;30.464;2023-07-24T04:49:53;10.88;;;2.50;;
78365;SDS011;67641;59.864;30.464;2023-07-24T04:52:21;6.07;;;2.47;;
78365;SDS011;67641;59.864;30.464;2023-07-24T04:54:48;6.93;;;2.53;;
78365;SDS011;67641;59.864;30.464;2023-07-24T04:57:14;6.97;;;2.63;;
78365;SDS011;67641;59.864;30.464;2023-07-24T04:59:41;10.07;;;2.78;;
78365;SDS011;67641;59.864;30.464;2023-07-24T05:02:07;6.18;;;2.38;;
78365;SDS011;67641;59.864;30.464;2023-07-24T05:04:34;5.65;;;2.22;;
78365;SDS011;67641;59.864;30.464;2023-07-24T05:07:01;8.00;;;2.58;;
78365;SDS011;67641;59.864;30.464;2023-07-24T05:11:17;6.38;;;2.33;;
78365;SDS011;67641;59.864;30.464;2023-07-24T05:13:44;6.47;;;2.50;;
78365;SDS011;67641;59.864;30.464;2023-07-24T05:16:11;4.60;;;2.58;;
78365;SDS011;67641;59.864;30.464;2023-07-24T05:18:38;6.63;;;2.47;;
78365;SDS011;67641;59.864;30.464;2023-07-24T05:21:04;8.43;;;2.28;;
78365;SDS011;67641;59.864;30.464;2023-07-24T05:23:31;6.30;;;2.47;;
78365;SDS011;67641;59.864;30.464;2023-07-24T05:26:02;8.52;;;2.33;;
78365;SDS011;67641;59.864;30.464;2023-07-24T05:28:30;4.40;;;1.95;;
78365;SDS011;67641;59.864;30.464;2023-07-24T05:33:55;9.60;;;2.90;;
78365;SDS011;67641;59.864;30.464;2023-07-24T05:36:22;6.97;;;2.75;;
78365;SDS011;67641;59.864;30.464;2023-07-24T05:38:51;6.43;;;2.65;;
78365;SDS011;67641;59.864;30.464;2023-07-24T05:41:18;7.18;;;2.38;;
78365;SDS011;67641;59.864;30.464;2023-07-24T05:43:45;11.15;;;2.40;;
78365;SDS011;67641;59.864;30.464;2023-07-24T05:46:12;6.57;;;2.47;;
78365;SDS011;67641;59.864;30.464;2023-07-24T05:48:38;5.55;;;2.22;;
78365;SDS011;67641;59.864;30.464;2023-07-24T05:51:05;7.03;;;2.90;;
78365;SDS011;67641;59.864;30.464;2023-07-24T05:53:32;7.13;;;2.60;;
78365;SDS011;67641;59.864;30.464;2023-07-24T05:56:15;8.35;;;2.45;;
78365;SDS011;67641;59.864;30.464;2023-07-24T05:58:42;8.05;;;2.60;;
78365;SDS011;67641;59.864;30.464;2023-07-24T06:01:08;9.10;;;2.30;;
78365;SDS011;67641;59.864;30.464;2023-07-24T06:03:36;7.07;;;2.58;;
78365;SDS011;67641;59.864;30.464;2023-07-24T06:08:31;10.07;;;2.40;;
78365;SDS011;67641;59.864;30.464;2023-07-24T06:10:58;7.53;;;2.50;;
78365;SDS011;67641;59.864;30.464;2023-07-24T06:16:11;8.23;;;2.53;;
78365;SDS011;67641;59.864;30.464;2023-07-24T06:18:39;12.48;;;3.17;;
78365;SDS011;67641;59.864;30.464;2023-07-24T06:21:06;8.32;;;2.72;;
78365;SDS011;67641;59.864;30.464;2023-07-24T06:23:33;4.90;;;2.67;;
78365;SDS011;67641;59.864;30.464;2023-07-24T06:26:00;5.65;;;2.60;;
78365;SDS011;67641;59.864;30.464;2023-07-24T06:28:27;8.18;;;2.92;;
78365;SDS011;67641;59.864;30.464;2023-07-24T06:30:54;7.35;;;2.80;;
78365;SDS011;67641;59.864;30.464;2023-07-24T06:33:21;7.43;;;4.07;;
78365;SDS011;67641;59.864;30.464;2023-07-24T06:38:17;7.47;;;2.65;;
78365;SDS011;67641;59.864;30.464;2023-07-24T06:40:44;8.70;;;2.60;;
78365;SDS011;67641;59.864;30.464;2023-07-24T06:43:11;7.43;;;2.55;;
78365;SDS011;67641;59.864;30.464;2023-07-24T06:45:38;6.32;;;2.47;;
78365;SDS011;67641;59.864;30.464;2023-07-24T06:48:05;7.43;;;2.65;;
78365;SDS011;67641;59.864;30.464;2023-07-24T06:50:32;6.32;;;3.15;;
78365;SDS011;67641;59.864;30.464;2023-07-24T06:52:58;10.55;;;3.30;;
78365;SDS011;67641;59.864;30.464;2023-07-24T06:55:25;8.75;;;3.15;;
78365;SDS011;67641;59.864;30.464;2023-07-24T06:57:55;7.13;;;3.15;;
78365;SDS011;67641;59.864;30.464;2023-07-24T07:01:21;5.72;;;2.55;;
78365;SDS011;67641;59.864;30.464;2023-07-24T07:03:48;6.45;;;2.63;;
78365;SDS011;67641;59.864;30.464;2023-07-24T07:06:15;10.13;;;3.15;;
78365;SDS011;67641;59.864;30.464;2023-07-24T07:08:42;11.45;;;2.70;;
78365;SDS011;67641;59.864;30.464;2023-07-24T07:11:09;7.15;;;2.75;;
78365;SDS011;67641;59.864;30.464;2023-07-24T07:13:36;8.02;;;2.80;;
78365;SDS011;67641;59.864;30.464;2023-07-24T07:16:03;9.43;;;2.90;;
78365;SDS011;67641;59.864;30.464;2023-07-24T07:18:30;10.60;;;2.60;;
78365;SDS011;67641;59.864;30.464;2023-07-24T07:23:43;9.18;;;2.90;;
78365;SDS011;67641;59.864;30.464;2023-07-24T07:26:10;9.25;;;2.70;;
78365;SDS011;67641;59.864;30.464;2023-07-24T07:28:37;8.70;;;3.22;;
78365;SDS011;67641;59.864;30.464;2023-07-24T07:31:04;8.13;;;3.25;;
78365;SDS011;67641;59.864;30.464;2023-07-24T07:33:32;8.35;;;2.70;;
78365;SDS011;67641;59.864;30.464;2023-07-24T07:35:59;6.70;;;2.90;;
78365;SDS011;67641;59.864;30.464;2023-07-24T07:38:25;13.38;;;3.65;;
78365;SDS011;67641;59.864;30.464;2023-07-24T07:40:52;8.65;;;3.13;;
78365;SDS011;67641;59.864;30.464;2023-07-24T07:46:05;9.82;;;3.35;;
78365;SDS011;67641;59.864;30.464;2023-07-24T07:48:31;10.45;;;3.17;;
78365;SDS011;67641;59.864;30.464;2023-07-24T07:50:58;16.83;;;3.33;;
78365;SDS011;67641;59.864;30.464;2023-07-24T07:53:25;9.18;;;2.90;;
78365;SDS011;67641;59.864;30.464;2023-07-24T07:55:58;8.60;;;2.90;;
78365;SDS011;67641;59.864;30.464;2023-07-24T07:58:28;15.52;;;3.50;;
78365;SDS011;67641;59.864;30.464;2023-07-24T08:00:55;9.18;;;2.92;;
78365;SDS011;67641;59.864;30.464;2023-07-24T08:03:22;7.30;;;2.60;;
78365;SDS011;67641;59.864;30.464;2023-07-24T08:07:44;14.73;;;3.40;;
78365;SDS011;67641;59.864;30.464;2023-07-24T08:10:11;11.30;;;3.15;;
78365;SDS011;67641;59.864;30.464;2023-07-24T08:12:40;10.45;;;3.83;;
78365;SDS011;67641;59.864;30.464;2023-07-24T08:15:07;9.27;;;3.35;;
78365;SDS011;67641;59.864;30.464;2023-07-24T08:17:35;13.38;;;3.63;;
78365;SDS011;67641;59.864;30.464;2023-07-24T08:20:02;31.73;;;16.10;;
78365;SDS011;67641;59.864;30.464;2023-07-24T08:22:29;10.02;;;3.90;;
78365;SDS011;67641;59.864;30.464;2023-07-24T08:24:56;11.57;;;4.03;;
78365;SDS011;67641;59.864;30.464;2023-07-24T08:30:00;14.40;;;3.80;;
78365;SDS011;67641;59.864;30.464;2023-07-24T08:32:27;8.30;;;3.22;;
78365;SDS011;67641;59.864;30.464;2023-07-24T08:34:54;13.73;;;3.38;;
78365;SDS011;67641;59.864;30.464;2023-07-24T08:37:21;11.90;;;3.65;;
78365;SDS011;67641;59.864;30.464;2023-07-24T08:39:48;14.15;;;4.20;;
78365;SDS011;67641;59.864;30.464;2023-07-24T08:42:14;12.73;;;3.40;;
78365;SDS011;67641;59.864;30.464;2023-07-24T08:44:41;14.57;;;3.55;;
78365;SDS011;67641;59.864;30.464;2023-07-24T08:47:10;12.70;;;3.70;;
78365;SDS011;67641;59.864;30.464;2023-07-24T08:52:25;12.77;;;3.33;;
78365;SDS011;67641;59.864;30.464;2023-07-24T08:54:52;14.95;;;3.63;;
78365;SDS011;67641;59.864;30.464;2023-07-24T08:57:25;12.60;;;3.35;;
78365;SDS011;67641;59.864;30.464;2023-07-24T08:59:54;12.38;;;3.63;;
78365;SDS011;67641;59.864;30.464;2023-07-24T09:02:23;13.55;;;3.35;;
78365;SDS011;67641;59.864;30.464;2023-07-24T09:04:53;12.35;;;3.33;;
78365;SDS011;67641;59.864;30.464;2023-07-24T09:07:22;11.90;;;3.78;;
78365;SDS011;67641;59.864;30.464;2023-07-24T09:09:54;15.88;;;3.58;;
78365;SDS011;67641;59.864;30.464;2023-07-24T09:12:24;13.25;;;3.65;;
78365;SDS011;67641;59.864;30.464;2023-07-24T09:15:05;13.07;;;4.15;;
78365;SDS011;67641;59.864;30.464;2023-07-24T09:17:34;12.77;;;4.03;;
78365;SDS011;67641;59.864;30.464;2023-07-24T09:20:03;11.57;;;3.58;;
78365;SDS011;67641;59.864;30.464;2023-07-24T09:22:33;8.82;;;3.22;;
78365;SDS011;67641;59.864;30.464;2023-07-24T09:25:02;15.32;;;4.28;;
78365;SDS011;67641;59.864;30.464;2023-07-24T09:27:33;12.23;;;3.60;;
78365;SDS011;67641;59.864;30.464;2023-07-24T09:30:02;13.02;;;3.40;;
78365;SDS011;67641;59.864;30.464;2023-07-24T09:32:41;8.57;;;3.47;;
78365;SDS011;67641;59.864;30.464;2023-07-24T09:38:12;13.82;;;3.95;;
78365;SDS011;67641;59.864;30.464;2023-07-24T09:40:43;13.18;;;3.10;;
78365;SDS011;67641;59.864;30.464;2023-07-24T09:43:16;11.93;;;3.88;;
78365;SDS011;67641;59.864;30.464;2023-07-24T09:45:49;16.25;;;3.92;;
78365;SDS011;67641;59.864;30.464;2023-07-24T09:48:19;12.18;;;3.40;;
78365;SDS011;67641;59.864;30.464;2023-07-24T09:50:55;10.70;;;4.15;;
78365;SDS011;67641;59.864;30.464;2023-07-24T09:55:56;9.98;;;3.60;;
78365;SDS011;67641;59.864;30.464;2023-07-24T10:01:05;12.30;;;4.07;;
78365;SDS011;67641;59.864;30.464;2023-07-24T10:03:40;10.15;;;3.80;;
78365;SDS011;67641;59.864;30.464;2023-07-24T10:06:17;11.45;;;3.35;;
78365;SDS011;67641;59.864;30.464;2023-07-24T10:08:46;10.63;;;3.83;;
78365;SDS011;67641;59.864;30.464;2023-07-24T10:11:16;11.38;;;3.78;;
78365;SDS011;67641;59.864;30.464;2023-07-24T10:13:46;12.98;;;3.78;;
78365;SDS011;67641;59.864;30.464;2023-07-24T10:16:16;13.00;;;3.55;;
78365;SDS011;67641;59.864;30.464;2023-07-24T10:19:01;15.80;;;4.30;;
78365;SDS011;67641;59.864;30.464;2023-07-24T10:21:44;10.95;;;4.18;;
78365;SDS011;67641;59.864;30.464;2023-07-24T10:24:16;11.15;;;4.00;;
78365;SDS011;67641;59.864;30.464;2023-07-24T10:26:47;9.07;;;3.50;;
78365;SDS011;67641;59.864;30.464;2023-07-24T10:29:17;13.82;;;4.50;;
78365;SDS011;67641;59.864;30.464;2023-07-24T10:31:52;15.60;;;4.40;;
78365;SDS011;67641;59.864;30.464;2023-07-24T10:34:22;14.13;;;3.90;;
78365;SDS011;67641;59.864;30.464;2023-07-24T10:37:01;10.60;;;4.25;;
78365;SDS011;67641;59.864;30.464;2023-07-24T10:40:00;11.38;;;3.83;;
78365;SDS011;67641;59.864;30.464;2023-07-24T10:42:31;12.52;;;3.58;;
78365;SDS011;67641;59.864;30.464;2023-07-24T10:45:03;13.00;;;3.92;;
78365;SDS011;67641;59.864;30.464;2023-07-24T10:47:34;11.52;;;3.85;;
78365;SDS011;67641;59.864;30.464;2023-07-24T10:50:03;16.17;;;4.45;;
78365;SDS011;67641;59.864;30.464;2023-07-24T10:52:32;12.52;;;3.95;;
78365;SDS011;67641;59.864;30.464;2023-07-24T10:55:02;17.73;;;4.40;;
78365;SDS011;67641;59.864;30.464;2023-07-24T10:57:32;14.30;;;3.78;;
78365;SDS011;67641;59.864;30.464;2023-07-24T11:00:19;9.57;;;3.65;;
78365;SDS011;67641;59.864;30.464;2023-07-24T11:09:54;9.63;;;3.60;;
78365;SDS011;67641;59.864;30.464;2023-07-24T11:12:25;17.77;;;5.00;;
78365;SDS011;67641;59.864;30.464;2023-07-24T11:15:00;11.98;;;3.92;;
78365;SDS011;67641;59.864;30.464;2023-07-24T11:17:33;10.15;;;3.90;;
78365;SDS011;67641;59.864;30.464;2023-07-24T11:20:11;12.27;;;4.03;;
78365;SDS011;67641;59.864;30.464;2023-07-24T11:22:42;11.93;;;3.88;;
78365;SDS011;67641;59.864;30.464;2023-07-24T11:25:15;12.30;;;4.03;;
78365;SDS011;67641;59.864;30.464;2023-07-24T11:28:09;13.32;;;4.15;;
78365;SDS011;67641;59.864;30.464;2023-07-24T11:31:05;17.88;;;4.57;;
78365;SDS011;67641;59.864;30.464;2023-07-24T11:33:35;11.75;;;3.95;;
78365;SDS011;67641;59.864;30.464;2023-07-24T11:36:05;12.48;;;4.68;;
78365;SDS011;67641;59.864;30.464;2023-07-24T11:38:35;10.82;;;4.07;;
78365;SDS011;67641;59.864;30.464;2023-07-24T11:41:07;10.45;;;4.35;;
78365;SDS011;67641;59.864;30.464;2023-07-24T11:43:48;13.55;;;3.90;;
78365;SDS011;67641;59.864;30.464;2023-07-24T11:46:30;12.55;;;3.42;;
78365;SDS011;67641;59.864;30.464;2023-07-24T11:49:04;13.07;;;3.80;;
78365;SDS011;67641;59.864;30.464;2023-07-24T11:51:37;16.35;;;3.88;;
78365;SDS011;67641;59.864;30.464;2023-07-24T11:54:06;7.75;;;3.15;;
78365;SDS011;67641;59.864;30.464;2023-07-24T11:56:36;10.77;;;3.83;;
78365;SDS011;67641;59.864;30.464;2023-07-24T11:59:11;9.02;;;3.33;;
78365;SDS011;67641;59.864;30.464;2023-07-24T12:01:51;9.90;;;4.07;;
78365;SDS011;67641;59.864;30.464;2023-07-24T12:04:32;14.50;;;4.20;;
78365;SDS011;67641;59.864;30.464;2023-07-24T12:08:35;9.95;;;3.47;;
78365;SDS011;67641;59.864;30.464;2023-07-24T12:11:17;14.43;;;3.60;;
78365;SDS011;67641;59.864;30.464;2023-07-24T12:13:47;10.88;;;3.88;;
78365;SDS011;67641;59.864;30.464;2023-07-24T12:16:23;12.50;;;3.70;;
78365;SDS011;67641;59.864;30.464;2023-07-24T12:18:54;11.90;;;4.10;;
78365;SDS011;67641;59.864;30.464;2023-07-24T12:21:26;14.02;;;3.75;;
78365;SDS011;67641;59.864;30.464;2023-07-24T12:23:59;13.05;;;4.07;;
78365;SDS011;67641;59.864;30.464;2023-07-24T12:28:46;12.88;;;4.07;;
78365;SDS011;67641;59.864;30.464;2023-07-24T12:31:13;13.63;;;4.00;;
78365;SDS011;67641;59.864;30.464;2023-07-24T12:33:40;10.77;;;4.00;;
78365;SDS011;67641;59.864;30.464;2023-07-24T12:36:07;9.02;;;3.90;;
78365;SDS011;67641;59.864;30.464;2023-07-24T12:38:34;10.80;;;3.58;;
78365;SDS011;67641;59.864;30.464;2023-07-24T12:41:01;12.88;;;3.75;;
78365;SDS011;67641;59.864;30.464;2023-07-24T12:43:28;12.60;;;3.85;;
78365;SDS011;67641;59.864;30.464;2023-07-24T12:49:07;14.07;;;4.07;;
78365;SDS011;67641;59.864;30.464;2023-07-24T12:51:35;8.93;;;3.80;;
78365;SDS011;67641;59.864;30.464;2023-07-24T12:54:02;13.82;;;4.03;;
78365;SDS011;67641;59.864;30.464;2023-07-24T12:56:33;9.15;;;3.72;;
78365;SDS011;67641;59.864;30.464;2023-07-24T12:59:01;13.30;;;4.00;;
78365;SDS011;67641;59.864;30.464;2023-07-24T13:01:29;17.25;;;4.82;;
78365;SDS011;67641;59.864;30.464;2023-07-24T13:03:56;10.50;;;4.15;;
78365;SDS011;67641;59.864;30.464;2023-07-24T13:08:59;11.85;;;4.78;;
78365;SDS011;67641;59.864;30.464;2023-07-24T13:11:26;12.70;;;4.55;;
78365;SDS011;67641;59.864;30.464;2023-07-24T13:13:54;10.80;;;3.85;;
78365;SDS011;67641;59.864;30.464;2023-07-24T13:16:22;8.45;;;3.75;;
78365;SDS011;67641;59.864;30.464;2023-07-24T13:41:11;11.48;;;4.20;;
78365;SDS011;67641;59.864;30.464;2023-07-24T13:43:59;10.43;;;4.53;;
78365;SDS011;67641;59.864;30.464;2023-07-24T13:46:26;12.95;;;4.63;;
78365;SDS011;67641;59.864;30.464;2023-07-24T13:50:46;12.00;;;4.13;;
78365;SDS011;67641;59.864;30.464;2023-07-24T13:53:15;15.05;;;4.30;;
78365;SDS011;67641;59.864;30.464;2023-07-24T13:55:43;13.85;;;4.00;;
78365;SDS011;67641;59.864;30.464;2023-07-24T13:58:12;13.35;;;4.13;;
78365;SDS011;67641;59.864;30.464;2023-07-24T14:00:39;12.52;;;4.35;;
78365;SDS011;67641;59.864;30.464;2023-07-24T14:05:51;15.60;;;4.10;;
78365;SDS011;67641;59.864;30.464;2023-07-24T14:08:18;16.95;;;4.28;;
78365;SDS011;67641;59.864;30.464;2023-07-24T14:13:36;11.50;;;3.92;;
78365;SDS011;67641;59.864;30.464;2023-07-24T14:16:03;11.02;;;3.85;;
78365;SDS011;67641;59.864;30.464;2023-07-24T14:18:30;15.02;;;5.00;;
78365;SDS011;67641;59.864;30.464;2023-07-24T14:43:47;14.05;;;4.68;;
78365;SDS011;67641;59.864;30.464;2023-07-24T14:47:46;12.50;;;5.07;;
78365;SDS011;67641;59.864;30.464;2023-07-24T14:55:24;15.40;;;6.10;;
78365;SDS011;67641;59.864;30.464;2023-07-24T14:58:33;15.77;;;7.32;;
78365;SDS011;67641;59.864;30.464;2023-07-24T15:01:13;21.77;;;7.82;;
78365;SDS011;67641;59.864;30.464;2023-07-24T15:29:06;19.52;;;9.02;;
78365;SDS011;67641;59.864;30.464;2023-07-24T15:32:18;16.92;;;8.23;;
78365;SDS011;67641;59.864;30.464;2023-07-24T15:43:09;15.73;;;7.57;;
78365;SDS011;67641;59.864;30.464;2023-07-24T15:54:17;15.10;;;7.93;;
78365;SDS011;67641;59.864;30.464;2023-07-24T16:01:30;15.40;;;8.35;;
78365;SDS011;67641;59.864;30.464;2023-07-24T16:47:11;15.30;;;7.55;;
78365;SDS011;67641;59.864;30.464;2023-07-24T16:49:43;16.42;;;8.07;;
78365;SDS011;67641;59.864;30.464;2023-07-24T16:52:10;16.55;;;7.53;;
78365;SDS011;67641;59.864;30.464;2023-07-24T16:54:40;18.48;;;7.97;;
78365;SDS011;67641;59.864;30.464;2023-07-24T16:57:09;17.20;;;8.48;;
78365;SDS011;67641;59.864;30.464;2023-07-24T16:59:36;18.52;;;7.60;;
78365;SDS011;67641;59.864;30.464;2023-07-24T17:02:03;14.20;;;7.45;;
78365;SDS011;67641;59.864;30.464;2023-07-24T17:05:46;21.00;;;7.57;;
78365;SDS011;67641;59.864;30.464;2023-07-24T18:30:26;14.73;;;6.97;;
78365;SDS011;67641;59.864;30.464;2023-07-24T18:32:55;14.45;;;7.28;;
78365;SDS011;67641;59.864;30.464;2023-07-24T18:38:55;17.65;;;7.82;;
78365;SDS011;67641;59.864;30.464;2023-07-24T18:41:22;16.48;;;6.70;;
78365;SDS011;67641;59.864;30.464;2023-07-24T18:46:27;21.17;;;7.18;;
78365;SDS011;67641;59.864;30.464;2023-07-24T18:51:30;16.65;;;7.18;;
78365;SDS011;67641;59.864;30.464;2023-07-24T19:04:44;12.45;;;5.60;;
78365;SDS011;67641;59.864;30.464;2023-07-24T19:14:39;14.23;;;6.18;;
78365;SDS011;67641;59.864;30.464;2023-07-24T19:28:55;14.43;;;6.40;;
78365;SDS011;67641;59.864;30.464;2023-07-24T19:31:23;16.42;;;6.63;;
78365;SDS011;67641;59.864;30.464;2023-07-24T19:33:50;11.85;;;5.97;;
78365;SDS011;67641;59.864;30.464;2023-07-24T19:36:18;14.68;;;6.10;;
78365;SDS011;67641;59.864;30.464;2023-07-24T19:38:45;16.85;;;6.22;;
78365;SDS011;67641;59.864;30.464;2023-07-24T19:41:12;13.88;;;5.68;;
78365;SDS011;67641;59.864;30.464;2023-07-24T19:43:38;14.32;;;6.53;;
78365;SDS011;67641;59.864;30.464;2023-07-24T19:46:39;16.40;;;6.75;;
78365;SDS011;67641;59.864;30.464;2023-07-24T19:49:06;15.38;;;6.38;;
78365;SDS011;67641;59.864;30.464;2023-07-24T19:54:27;11.73;;;5.90;;
78365;SDS011;67641;59.864;30.464;2023-07-24T20:07:48;10.98;;;5.70;;
78365;SDS011;67641;59.864;30.464;2023-07-24T20:10:20;10.52;;;6.43;;
78365;SDS011;67641;59.864;30.464;2023-07-24T20:12:47;12.73;;;6.32;;
78365;SDS011;67641;59.864;30.464;2023-07-24T20:15:14;9.48;;;5.65;;
78365;SDS011;67641;59.864;30.464;2023-07-24T20:20:21;15.43;;;6.03;;
78365;SDS011;67641;59.864;30.464;2023-07-24T20:22:48;10.48;;;4.82;;
78365;SDS011;67641;59.864;30.464;2023-07-24T20:25:18;10.85;;;5.40;;
78365;SDS011;67641;59.864;30.464;2023-07-24T20:27:54;8.77;;;5.70;;
78365;SDS011;67641;59.864;30.464;2023-07-24T20:30:23;10.00;;;5.10;;
78365;SDS011;67641;59.864;30.464;2023-07-24T20:32:51;10.43;;;6.15;;
78365;SDS011;67641;59.864;30.464;2023-07-24T20:35:18;11.00;;;5.45;;
78365;SDS011;67641;59.864;30.464;2023-07-24T20:37:45;9.43;;;5.60;;
78365;SDS011;67641;59.864;30.464;2023-07-24T20:42:32;9.27;;;5.10;;
78365;SDS011;67641;59.864;30.464;2023-07-24T20:45:10;10.57;;;5.43;;
78365;SDS011;67641;59.864;30.464;2023-07-24T20:47:38;9.57;;;5.70;;
78365;SDS011;67641;59.864;30.464;2023-07-24T20:50:09;9.60;;;5.43;;
78365;SDS011;67641;59.864;30.464;2023-07-24T20:52:43;11.15;;;5.25;;
78365;SDS011;67641;59.864;30.464;2023-07-24T20:55:15;11.43;;;6.38;;
78365;SDS011;67641;59.864;30.464;2023-07-24T20:57:48;12.48;;;5.68;;